sensor_id;sensor_type;location;lat;lon;timestamp;P1;durP1;ratioP1;P2;durP2;ratioP2
21492;SDS011;10908;50.690;4.400;2023-03-15T00:00:59;7.22;;;2.42;;
21492;SDS011;10908;50.690;4.400;2023-03-15T00:03:27;10.60;;;2.70;;
21492;SDS011;10908;50.690;4.400;2023-03-15T00:05:56;14.80;;;3.40;;
21492;SDS011;10908;50.690;4.400;2023-03-15T00:08:21;10.55;;;3.00;;
21492;SDS011;10908;50.690;4.400;2023-03-15T00:10:47;10.00;;;2.63;;
21492;SDS011;10908;50.690;4.400;2023-03-15T00:13:13;9.95;;;3.03;;
21492;SDS011;10908;50.690;4.400;2023-03-15T00:15:43;12.43;;;2.80;;
21492;SDS011;10908;50.690;4.400;2023-03-15T00:18:29;12.18;;;2.65;;
21492;SDS011;10908;50.690;4.400;2023-03-15T00:21:04;9.82;;;2.97;;
21492;SDS011;10908;50.690;4.400;2023-03-15T00:23:30;8.45;;;2.65;;
21492;SDS011;10908;50.690;4.400;2023-03-15T00:25:58;9.05;;;2.28;;
21492;SDS011;10908;50.690;4.400;2023-03-15T00:28:28;12.38;;;2.60;;
21492;SDS011;10908;50.690;4.400;2023-03-15T00:31:03;13.95;;;2.60;;
21492;SDS011;10908;50.690;4.400;2023-03-15T00:33:34;7.53;;;2.60;;
21492;SDS011;10908;50.690;4.400;2023-03-15T00:36:05;7.28;;;2.40;;
21492;SDS011;10908;50.690;4.400;2023-03-15T00:38:35;11.07;;;3.00;;
21492;SDS011;10908;50.690;4.400;2023-03-15T00:41:11;11.18;;;2.70;;
21492;SDS011;10908;50.690;4.400;2023-03-15T00:43:38;8.77;;;2.42;;
21492;SDS011;10908;50.690;4.400;2023-03-15T00:46:04;6.72;;;2.50;;
21492;SDS011;10908;50.690;4.400;2023-03-15T00:48:41;8.57;;;2.78;;
21492;SDS011;10908;50.690;4.400;2023-03-15T00:51:11;6.78;;;1.90;;
21492;SDS011;10908;50.690;4.400;2023-03-15T00:53:39;6.65;;;1.90;;
21492;SDS011;10908;50.690;4.400;2023-03-15T00:56:10;7.70;;;1.70;;
21492;SDS011;10908;50.690;4.400;2023-03-15T00:58:45;10.60;;;2.05;;
21492;SDS011;10908;50.690;4.400;2023-03-15T01:01:15;9.18;;;2.08;;
21492;SDS011;10908;50.690;4.400;2023-03-15T01:03:42;9.10;;;2.67;;
21492;SDS011;10908;50.690;4.400;2023-03-15T01:06:12;7.90;;;2.67;;
21492;SDS011;10908;50.690;4.400;2023-03-15T01:08:40;7.90;;;3.03;;
21492;SDS011;10908;50.690;4.400;2023-03-15T01:11:09;9.02;;;2.60;;
21492;SDS011;10908;50.690;4.400;2023-03-15T01:13:40;8.50;;;2.42;;
21492;SDS011;10908;50.690;4.400;2023-03-15T01:16:06;8.52;;;2.42;;
21492;SDS011;10908;50.690;4.400;2023-03-15T01:18:33;11.48;;;2.83;;
21492;SDS011;10908;50.690;4.400;2023-03-15T01:21:01;6.95;;;2.30;;
21492;SDS011;10908;50.690;4.400;2023-03-15T01:23:27;7.70;;;2.40;;
21492;SDS011;10908;50.690;4.400;2023-03-15T01:25:58;7.90;;;2.50;;
21492;SDS011;10908;50.690;4.400;2023-03-15T01:28:25;8.02;;;2.90;;
21492;SDS011;10908;50.690;4.400;2023-03-15T01:30:51;7.95;;;2.70;;
21492;SDS011;10908;50.690;4.400;2023-03-15T01:33:17;8.80;;;2.90;;
21492;SDS011;10908;50.690;4.400;2023-03-15T01:35:45;8.18;;;2.70;;
21492;SDS011;10908;50.690;4.400;2023-03-15T01:38:11;8.65;;;3.10;;
21492;SDS011;10908;50.690;4.400;2023-03-15T01:40:43;6.97;;;2.78;;
21492;SDS011;10908;50.690;4.400;2023-03-15T01:43:13;9.82;;;3.03;;
21492;SDS011;10908;50.690;4.400;2023-03-15T01:45:56;7.05;;;2.70;;
21492;SDS011;10908;50.690;4.400;2023-03-15T01:48:46;7.32;;;2.85;;
21492;SDS011;10908;50.690;4.400;2023-03-15T01:51:19;9.63;;;2.95;;
21492;SDS011;10908;50.690;4.400;2023-03-15T01:53:53;6.60;;;2.80;;
21492;SDS011;10908;50.690;4.400;2023-03-15T01:56:35;8.77;;;2.97;;
21492;SDS011;10908;50.690;4.400;2023-03-15T01:59:03;9.70;;;2.90;;
21492;SDS011;10908;50.690;4.400;2023-03-15T02:01:31;10.23;;;3.22;;
21492;SDS011;10908;50.690;4.400;2023-03-15T02:04:02;7.13;;;3.00;;
21492;SDS011;10908;50.690;4.400;2023-03-15T02:06:31;7.78;;;2.70;;
21492;SDS011;10908;50.690;4.400;2023-03-15T02:09:00;6.72;;;2.80;;
21492;SDS011;10908;50.690;4.400;2023-03-15T02:11:30;10.68;;;2.80;;
21492;SDS011;10908;50.690;4.400;2023-03-15T02:13:57;8.65;;;2.67;;
21492;SDS011;10908;50.690;4.400;2023-03-15T02:16:23;7.07;;;2.40;;
21492;SDS011;10908;50.690;4.400;2023-03-15T02:18:49;9.52;;;2.42;;
21492;SDS011;10908;50.690;4.400;2023-03-15T02:23:41;6.72;;;2.15;;
21492;SDS011;10908;50.690;4.400;2023-03-15T02:26:16;8.30;;;2.40;;
21492;SDS011;10908;50.690;4.400;2023-03-15T02:28:51;6.93;;;2.25;;
21492;SDS011;10908;50.690;4.400;2023-03-15T02:31:18;10.43;;;2.50;;
21492;SDS011;10908;50.690;4.400;2023-03-15T02:33:53;10.77;;;2.35;;
21492;SDS011;10908;50.690;4.400;2023-03-15T02:36:26;9.27;;;2.45;;
21492;SDS011;10908;50.690;4.400;2023-03-15T02:38:52;9.07;;;2.58;;
21492;SDS011;10908;50.690;4.400;2023-03-15T02:41:20;6.88;;;2.67;;
21492;SDS011;10908;50.690;4.400;2023-03-15T02:43:53;9.27;;;3.00;;
21492;SDS011;10908;50.690;4.400;2023-03-15T02:46:22;8.05;;;2.40;;
21492;SDS011;10908;50.690;4.400;2023-03-15T02:48:48;9.85;;;2.88;;
21492;SDS011;10908;50.690;4.400;2023-03-15T02:51:26;9.15;;;2.60;;
21492;SDS011;10908;50.690;4.400;2023-03-15T02:53:53;11.27;;;2.53;;
21492;SDS011;10908;50.690;4.400;2023-03-15T02:56:18;11.15;;;2.67;;
21492;SDS011;10908;50.690;4.400;2023-03-15T02:58:44;10.55;;;2.78;;
21492;SDS011;10908;50.690;4.400;2023-03-15T03:01:11;6.53;;;2.20;;
21492;SDS011;10908;50.690;4.400;2023-03-15T03:03:38;7.70;;;2.20;;
21492;SDS011;10908;50.690;4.400;2023-03-15T03:06:08;9.68;;;2.08;;
21492;SDS011;10908;50.690;4.400;2023-03-15T03:08:34;12.43;;;2.78;;
21492;SDS011;10908;50.690;4.400;2023-03-15T03:11:01;9.25;;;2.75;;
21492;SDS011;10908;50.690;4.400;2023-03-15T03:13:26;9.82;;;2.75;;
21492;SDS011;10908;50.690;4.400;2023-03-15T03:15:52;10.32;;;2.60;;
21492;SDS011;10908;50.690;4.400;2023-03-15T03:18:26;9.02;;;2.80;;
21492;SDS011;10908;50.690;4.400;2023-03-15T03:20:56;5.80;;;2.60;;
21492;SDS011;10908;50.690;4.400;2023-03-15T03:23:23;6.35;;;2.78;;
21492;SDS011;10908;50.690;4.400;2023-03-15T03:25:51;6.88;;;2.80;;
21492;SDS011;10908;50.690;4.400;2023-03-15T03:28:18;8.52;;;2.80;;
21492;SDS011;10908;50.690;4.400;2023-03-15T03:30:44;7.80;;;3.00;;
21492;SDS011;10908;50.690;4.400;2023-03-15T03:33:10;7.70;;;3.05;;
21492;SDS011;10908;50.690;4.400;2023-03-15T03:35:36;8.52;;;3.22;;
21492;SDS011;10908;50.690;4.400;2023-03-15T03:38:01;11.90;;;3.45;;
21492;SDS011;10908;50.690;4.400;2023-03-15T03:40:27;8.38;;;3.40;;
21492;SDS011;10908;50.690;4.400;2023-03-15T03:42:52;10.93;;;3.63;;
21492;SDS011;10908;50.690;4.400;2023-03-15T03:45:18;8.45;;;3.70;;
21492;SDS011;10908;50.690;4.400;2023-03-15T03:47:44;8.93;;;3.70;;
21492;SDS011;10908;50.690;4.400;2023-03-15T03:50:10;10.57;;;3.70;;
21492;SDS011;10908;50.690;4.400;2023-03-15T03:52:35;8.35;;;3.55;;
21492;SDS011;10908;50.690;4.400;2023-03-15T03:55:04;10.10;;;4.05;;
21492;SDS011;10908;50.690;4.400;2023-03-15T03:57:29;12.65;;;4.35;;
21492;SDS011;10908;50.690;4.400;2023-03-15T03:59:55;10.82;;;3.83;;
21492;SDS011;10908;50.690;4.400;2023-03-15T04:02:22;9.40;;;4.15;;
21492;SDS011;10908;50.690;4.400;2023-03-15T04:04:48;10.05;;;4.30;;
21492;SDS011;10908;50.690;4.400;2023-03-15T04:07:14;11.98;;;4.68;;
21492;SDS011;10908;50.690;4.400;2023-03-15T04:09:40;11.27;;;4.28;;
21492;SDS011;10908;50.690;4.400;2023-03-15T04:12:06;13.63;;;4.18;;
21492;SDS011;10908;50.690;4.400;2023-03-15T04:14:31;10.55;;;4.53;;
21492;SDS011;10908;50.690;4.400;2023-03-15T04:16:57;13.32;;;4.88;;
21492;SDS011;10908;50.690;4.400;2023-03-15T04:19:23;11.45;;;4.68;;
21492;SDS011;10908;50.690;4.400;2023-03-15T04:21:48;15.20;;;4.80;;
21492;SDS011;10908;50.690;4.400;2023-03-15T04:24:16;10.23;;;4.30;;
21492;SDS011;10908;50.690;4.400;2023-03-15T04:26:42;11.30;;;4.20;;
21492;SDS011;10908;50.690;4.400;2023-03-15T04:29:08;10.00;;;4.10;;
21492;SDS011;10908;50.690;4.400;2023-03-15T04:31:35;14.63;;;4.30;;
21492;SDS011;10908;50.690;4.400;2023-03-15T04:34:01;12.55;;;4.35;;
21492;SDS011;10908;50.690;4.400;2023-03-15T04:36:28;10.95;;;4.40;;
21492;SDS011;10908;50.690;4.400;2023-03-15T04:38:54;12.57;;;4.13;;
21492;SDS011;10908;50.690;4.400;2023-03-15T04:41:30;11.43;;;4.35;;
21492;SDS011;10908;50.690;4.400;2023-03-15T04:43:56;12.27;;;3.92;;
21492;SDS011;10908;50.690;4.400;2023-03-15T04:46:21;12.57;;;4.07;;
21492;SDS011;10908;50.690;4.400;2023-03-15T04:48:47;11.00;;;4.30;;
21492;SDS011;10908;50.690;4.400;2023-03-15T04:51:13;11.10;;;4.38;;
21492;SDS011;10908;50.690;4.400;2023-03-15T04:53:38;13.35;;;4.30;;
21492;SDS011;10908;50.690;4.400;2023-03-15T04:56:04;12.40;;;4.25;;
21492;SDS011;10908;50.690;4.400;2023-03-15T04:58:30;10.18;;;4.47;;
21492;SDS011;10908;50.690;4.400;2023-03-15T05:00:56;12.52;;;4.68;;
21492;SDS011;10908;50.690;4.400;2023-03-15T05:03:22;10.35;;;4.20;;
21492;SDS011;10908;50.690;4.400;2023-03-15T05:05:47;10.85;;;4.65;;
21492;SDS011;10908;50.690;4.400;2023-03-15T05:08:13;10.35;;;4.10;;
21492;SDS011;10908;50.690;4.400;2023-03-15T05:10:39;10.85;;;4.20;;
21492;SDS011;10908;50.690;4.400;2023-03-15T05:13:04;12.45;;;4.18;;
21492;SDS011;10908;50.690;4.400;2023-03-15T05:15:30;12.73;;;4.63;;
21492;SDS011;10908;50.690;4.400;2023-03-15T05:17:56;9.25;;;4.53;;
21492;SDS011;10908;50.690;4.400;2023-03-15T05:20:22;10.18;;;4.15;;
21492;SDS011;10908;50.690;4.400;2023-03-15T05:22:49;9.85;;;4.60;;
21492;SDS011;10908;50.690;4.400;2023-03-15T05:25:17;12.15;;;4.30;;
21492;SDS011;10908;50.690;4.400;2023-03-15T05:27:43;12.45;;;4.30;;
21492;SDS011;10908;50.690;4.400;2023-03-15T05:30:10;12.80;;;4.65;;
21492;SDS011;10908;50.690;4.400;2023-03-15T05:32:36;12.45;;;4.93;;
21492;SDS011;10908;50.690;4.400;2023-03-15T05:35:04;11.75;;;4.53;;
21492;SDS011;10908;50.690;4.400;2023-03-15T05:37:31;13.05;;;4.72;;
21492;SDS011;10908;50.690;4.400;2023-03-15T05:39:57;14.20;;;4.93;;
21492;SDS011;10908;50.690;4.400;2023-03-15T05:42:23;12.82;;;5.13;;
21492;SDS011;10908;50.690;4.400;2023-03-15T05:44:53;13.38;;;5.20;;
21492;SDS011;10908;50.690;4.400;2023-03-15T05:47:20;12.82;;;5.15;;
21492;SDS011;10908;50.690;4.400;2023-03-15T05:49:47;12.30;;;5.18;;
21492;SDS011;10908;50.690;4.400;2023-03-15T05:52:13;12.00;;;4.90;;
21492;SDS011;10908;50.690;4.400;2023-03-15T05:54:39;13.57;;;5.25;;
21492;SDS011;10908;50.690;4.400;2023-03-15T05:57:04;14.63;;;5.78;;
21492;SDS011;10908;50.690;4.400;2023-03-15T05:59:30;11.85;;;5.32;;
21492;SDS011;10908;50.690;4.400;2023-03-15T15:55:35;5.57;;;1.30;;
21492;SDS011;10908;50.690;4.400;2023-03-15T15:58:03;5.03;;;1.10;;
21492;SDS011;10908;50.690;4.400;2023-03-15T16:00:29;4.15;;;1.15;;
21492;SDS011;10908;50.690;4.400;2023-03-15T16:02:56;4.35;;;1.00;;
21492;SDS011;10908;50.690;4.400;2023-03-15T16:05:26;3.80;;;0.98;;
21492;SDS011;10908;50.690;4.400;2023-03-15T16:07:54;3.83;;;1.10;;
21492;SDS011;10908;50.690;4.400;2023-03-15T16:10:21;4.43;;;1.30;;
21492;SDS011;10908;50.690;4.400;2023-03-15T16:12:50;4.28;;;1.33;;
21492;SDS011;10908;50.690;4.400;2023-03-15T16:15:18;2.80;;;0.98;;
21492;SDS011;10908;50.690;4.400;2023-03-15T16:17:44;3.80;;;1.33;;
21492;SDS011;10908;50.690;4.400;2023-03-15T16:20:10;3.67;;;1.23;;
21492;SDS011;10908;50.690;4.400;2023-03-15T16:22:37;4.65;;;1.48;;
21492;SDS011;10908;50.690;4.400;2023-03-15T16:25:21;7.03;;;1.80;;
21492;SDS011;10908;50.690;4.400;2023-03-15T16:27:50;4.40;;;1.23;;
21492;SDS011;10908;50.690;4.400;2023-03-15T16:30:21;6.22;;;1.67;;
21492;SDS011;10908;50.690;4.400;2023-03-15T16:32:49;4.10;;;1.42;;
21492;SDS011;10908;50.690;4.400;2023-03-15T16:35:19;4.13;;;1.40;;
21492;SDS011;10908;50.690;4.400;2023-03-15T16:37:46;4.18;;;1.48;;
21492;SDS011;10908;50.690;4.400;2023-03-15T16:40:21;4.55;;;1.23;;
21492;SDS011;10908;50.690;4.400;2023-03-15T16:42:57;4.68;;;1.20;;
21492;SDS011;10908;50.690;4.400;2023-03-15T16:45:23;4.85;;;1.23;;
21492;SDS011;10908;50.690;4.400;2023-03-15T16:47:50;5.60;;;1.48;;
21492;SDS011;10908;50.690;4.400;2023-03-15T16:50:16;3.97;;;1.38;;
21492;SDS011;10908;50.690;4.400;2023-03-15T16:52:42;4.78;;;1.40;;
21492;SDS011;10908;50.690;4.400;2023-03-15T16:55:13;6.43;;;1.48;;
21492;SDS011;10908;50.690;4.400;2023-03-15T16:57:40;3.92;;;1.30;;
21492;SDS011;10908;50.690;4.400;2023-03-15T17:00:08;5.50;;;1.55;;
21492;SDS011;10908;50.690;4.400;2023-03-15T17:02:37;6.20;;;1.67;;
21492;SDS011;10908;50.690;4.400;2023-03-15T17:05:03;4.95;;;1.50;;
21492;SDS011;10908;50.690;4.400;2023-03-15T17:07:30;4.22;;;1.80;;
21492;SDS011;10908;50.690;4.400;2023-03-15T17:10:00;4.80;;;1.75;;
21492;SDS011;10908;50.690;4.400;2023-03-15T17:12:31;4.78;;;2.03;;
21492;SDS011;10908;50.690;4.400;2023-03-15T17:14:57;8.18;;;2.40;;
21492;SDS011;10908;50.690;4.400;2023-03-15T17:17:25;5.32;;;2.05;;
21492;SDS011;10908;50.690;4.400;2023-03-15T17:19:51;5.85;;;1.88;;
21492;SDS011;10908;50.690;4.400;2023-03-15T17:22:17;6.05;;;1.70;;
21492;SDS011;10908;50.690;4.400;2023-03-15T17:24:44;6.55;;;2.05;;
21492;SDS011;10908;50.690;4.400;2023-03-15T17:29:56;5.65;;;1.70;;
21492;SDS011;10908;50.690;4.400;2023-03-15T17:32:22;6.00;;;1.52;;
21492;SDS011;10908;50.690;4.400;2023-03-15T17:34:48;6.82;;;1.60;;
21492;SDS011;10908;50.690;4.400;2023-03-15T17:37:14;4.72;;;1.63;;
21492;SDS011;10908;50.690;4.400;2023-03-15T17:39:40;4.75;;;1.50;;
21492;SDS011;10908;50.690;4.400;2023-03-15T17:42:10;5.28;;;1.73;;
21492;SDS011;10908;50.690;4.400;2023-03-15T17:44:37;6.75;;;1.60;;
21492;SDS011;10908;50.690;4.400;2023-03-15T17:47:03;5.53;;;1.67;;
21492;SDS011;10908;50.690;4.400;2023-03-15T17:49:31;4.78;;;1.60;;
21492;SDS011;10908;50.690;4.400;2023-03-15T17:51:57;6.07;;;1.80;;
21492;SDS011;10908;50.690;4.400;2023-03-15T17:54:22;6.05;;;2.13;;
21492;SDS011;10908;50.690;4.400;2023-03-15T17:56:48;5.75;;;2.17;;
21492;SDS011;10908;50.690;4.400;2023-03-15T17:59:15;6.60;;;2.25;;
21492;SDS011;10908;50.690;4.400;2023-03-15T18:04:13;5.78;;;1.90;;
21492;SDS011;10908;50.690;4.400;2023-03-15T18:06:40;4.70;;;1.65;;
21492;SDS011;10908;50.690;4.400;2023-03-15T18:09:09;5.38;;;2.35;;
21492;SDS011;10908;50.690;4.400;2023-03-15T18:11:36;4.30;;;2.10;;
21492;SDS011;10908;50.690;4.400;2023-03-15T18:14:08;4.78;;;2.20;;
21492;SDS011;10908;50.690;4.400;2023-03-15T18:16:39;5.60;;;2.10;;
21492;SDS011;10908;50.690;4.400;2023-03-15T18:19:05;4.75;;;1.90;;
21492;SDS011;10908;50.690;4.400;2023-03-15T18:21:30;5.47;;;1.80;;
21492;SDS011;10908;50.690;4.400;2023-03-15T18:23:56;6.40;;;1.70;;
21492;SDS011;10908;50.690;4.400;2023-03-15T18:26:22;3.72;;;1.80;;
21492;SDS011;10908;50.690;4.400;2023-03-15T18:28:48;4.88;;;1.83;;
21492;SDS011;10908;50.690;4.400;2023-03-15T18:31:16;5.47;;;1.80;;
21492;SDS011;10908;50.690;4.400;2023-03-15T18:33:44;5.75;;;1.63;;
21492;SDS011;10908;50.690;4.400;2023-03-15T18:36:11;4.70;;;1.55;;
21492;SDS011;10908;50.690;4.400;2023-03-15T18:38:37;5.20;;;1.60;;
21492;SDS011;10908;50.690;4.400;2023-03-15T18:41:03;5.90;;;1.45;;
21492;SDS011;10908;50.690;4.400;2023-03-15T18:43:36;5.95;;;1.60;;
21492;SDS011;10908;50.690;4.400;2023-03-15T18:46:01;4.65;;;1.30;;
21492;SDS011;10908;50.690;4.400;2023-03-15T18:48:27;4.50;;;1.80;;
21492;SDS011;10908;50.690;4.400;2023-03-15T18:50:52;5.47;;;1.70;;
21492;SDS011;10908;50.690;4.400;2023-03-15T18:53:18;8.23;;;1.50;;
21492;SDS011;10908;50.690;4.400;2023-03-15T18:55:44;4.68;;;1.77;;
21492;SDS011;10908;50.690;4.400;2023-03-15T18:58:09;4.28;;;1.83;;
21492;SDS011;10908;50.690;4.400;2023-03-15T19:00:37;7.10;;;2.00;;
21492;SDS011;10908;50.690;4.400;2023-03-15T19:03:05;6.55;;;2.30;;
21492;SDS011;10908;50.690;4.400;2023-03-15T19:05:32;7.35;;;2.33;;
21492;SDS011;10908;50.690;4.400;2023-03-15T19:08:00;7.13;;;2.20;;
21492;SDS011;10908;50.690;4.400;2023-03-15T19:10:25;4.63;;;1.63;;
21492;SDS011;10908;50.690;4.400;2023-03-15T19:12:51;5.75;;;1.90;;
21492;SDS011;10908;50.690;4.400;2023-03-15T19:15:19;4.63;;;1.80;;
21492;SDS011;10908;50.690;4.400;2023-03-15T19:17:47;5.68;;;2.13;;
21492;SDS011;10908;50.690;4.400;2023-03-15T19:20:15;5.63;;;1.83;;
21492;SDS011;10908;50.690;4.400;2023-03-15T19:22:45;7.07;;;2.03;;
21492;SDS011;10908;50.690;4.400;2023-03-15T19:25:11;5.90;;;2.13;;
21492;SDS011;10908;50.690;4.400;2023-03-15T19:27:38;6.63;;;1.58;;
21492;SDS011;10908;50.690;4.400;2023-03-15T19:30:08;7.20;;;2.03;;
21492;SDS011;10908;50.690;4.400;2023-03-15T19:32:36;5.45;;;2.30;;
21492;SDS011;10908;50.690;4.400;2023-03-15T19:35:02;8.10;;;2.63;;
21492;SDS011;10908;50.690;4.400;2023-03-15T19:37:27;5.43;;;2.47;;
21492;SDS011;10908;50.690;4.400;2023-03-15T19:39:53;7.20;;;2.67;;
21492;SDS011;10908;50.690;4.400;2023-03-15T19:42:19;6.00;;;2.58;;
21492;SDS011;10908;50.690;4.400;2023-03-15T19:44:44;8.38;;;3.08;;
21492;SDS011;10908;50.690;4.400;2023-03-15T19:47:12;7.60;;;2.95;;
21492;SDS011;10908;50.690;4.400;2023-03-15T19:49:37;7.10;;;2.58;;
21492;SDS011;10908;50.690;4.400;2023-03-15T19:52:03;5.60;;;2.60;;
21492;SDS011;10908;50.690;4.400;2023-03-15T19:54:29;8.02;;;3.10;;
21492;SDS011;10908;50.690;4.400;2023-03-15T19:56:57;5.00;;;2.53;;
21492;SDS011;10908;50.690;4.400;2023-03-15T19:59:24;6.13;;;2.90;;
21492;SDS011;10908;50.690;4.400;2023-03-15T20:01:49;9.90;;;3.20;;
21492;SDS011;10908;50.690;4.400;2023-03-15T20:04:15;10.15;;;2.80;;
21492;SDS011;10908;50.690;4.400;2023-03-15T20:06:41;8.88;;;3.15;;
21492;SDS011;10908;50.690;4.400;2023-03-15T20:09:07;6.75;;;2.88;;
21492;SDS011;10908;50.690;4.400;2023-03-15T20:11:32;9.60;;;3.30;;
21492;SDS011;10908;50.690;4.400;2023-03-15T20:13:58;7.65;;;4.32;;
21492;SDS011;10908;50.690;4.400;2023-03-15T20:16:24;13.55;;;4.70;;
21492;SDS011;10908;50.690;4.400;2023-03-15T20:18:49;9.13;;;5.05;;
21492;SDS011;10908;50.690;4.400;2023-03-15T20:21:16;13.25;;;5.03;;
21492;SDS011;10908;50.690;4.400;2023-03-15T20:23:42;14.13;;;5.68;;
21492;SDS011;10908;50.690;4.400;2023-03-15T20:26:10;10.63;;;5.70;;
21492;SDS011;10908;50.690;4.400;2023-03-15T20:28:37;10.45;;;5.78;;
21492;SDS011;10908;50.690;4.400;2023-03-15T20:31:05;12.63;;;6.05;;
21492;SDS011;10908;50.690;4.400;2023-03-15T20:33:31;14.40;;;6.57;;
21492;SDS011;10908;50.690;4.400;2023-03-15T20:35:57;17.60;;;6.35;;
21492;SDS011;10908;50.690;4.400;2023-03-15T20:38:23;12.00;;;5.93;;
21492;SDS011;10908;50.690;4.400;2023-03-15T20:40:52;12.73;;;5.78;;
21492;SDS011;10908;50.690;4.400;2023-03-15T20:43:18;10.95;;;5.28;;
21492;SDS011;10908;50.690;4.400;2023-03-15T20:45:45;11.93;;;5.13;;
21492;SDS011;10908;50.690;4.400;2023-03-15T20:48:10;11.48;;;5.07;;
21492;SDS011;10908;50.690;4.400;2023-03-15T20:50:36;10.98;;;5.10;;
21492;SDS011;10908;50.690;4.400;2023-03-15T20:53:01;11.60;;;4.78;;
21492;SDS011;10908;50.690;4.400;2023-03-15T20:55:29;12.55;;;4.82;;
21492;SDS011;10908;50.690;4.400;2023-03-15T20:57:55;10.02;;;5.07;;
21492;SDS011;10908;50.690;4.400;2023-03-15T21:00:21;11.57;;;4.97;;
21492;SDS011;10908;50.690;4.400;2023-03-15T21:02:47;8.80;;;4.47;;
21492;SDS011;10908;50.690;4.400;2023-03-15T21:05:13;9.75;;;4.60;;
21492;SDS011;10908;50.690;4.400;2023-03-15T21:07:40;8.02;;;4.35;;
21492;SDS011;10908;50.690;4.400;2023-03-15T21:10:06;9.48;;;4.88;;
21492;SDS011;10908;50.690;4.400;2023-03-15T21:12:33;11.25;;;5.22;;
21492;SDS011;10908;50.690;4.400;2023-03-15T21:14:59;10.07;;;4.78;;
21492;SDS011;10908;50.690;4.400;2023-03-15T21:17:25;8.98;;;4.40;;
21492;SDS011;10908;50.690;4.400;2023-03-15T21:19:51;11.52;;;5.03;;
21492;SDS011;10908;50.690;4.400;2023-03-15T21:22:18;10.93;;;4.85;;
21492;SDS011;10908;50.690;4.400;2023-03-15T21:24:43;10.70;;;4.65;;
21492;SDS011;10908;50.690;4.400;2023-03-15T21:27:09;9.57;;;4.40;;
21492;SDS011;10908;50.690;4.400;2023-03-15T21:29:36;9.77;;;4.38;;
21492;SDS011;10908;50.690;4.400;2023-03-15T21:32:02;8.80;;;4.05;;
21492;SDS011;10908;50.690;4.400;2023-03-15T21:34:31;10.00;;;4.35;;
21492;SDS011;10908;50.690;4.400;2023-03-15T21:36:56;8.60;;;4.10;;
21492;SDS011;10908;50.690;4.400;2023-03-15T21:39:22;8.63;;;4.28;;
21492;SDS011;10908;50.690;4.400;2023-03-15T21:41:48;9.57;;;4.30;;
21492;SDS011;10908;50.690;4.400;2023-03-15T21:44:14;12.02;;;3.97;;
21492;SDS011;10908;50.690;4.400;2023-03-15T21:46:39;8.40;;;3.72;;
21492;SDS011;10908;50.690;4.400;2023-03-15T21:49:06;8.95;;;4.13;;
21492;SDS011;10908;50.690;4.400;2023-03-15T21:51:35;8.70;;;4.03;;
21492;SDS011;10908;50.690;4.400;2023-03-15T21:54:02;9.07;;;3.58;;
21492;SDS011;10908;50.690;4.400;2023-03-15T21:56:29;8.50;;;3.70;;
21492;SDS011;10908;50.690;4.400;2023-03-15T21:58:56;7.20;;;3.70;;
21492;SDS011;10908;50.690;4.400;2023-03-15T22:01:22;11.57;;;4.57;;
21492;SDS011;10908;50.690;4.400;2023-03-15T22:03:48;8.98;;;3.97;;
21492;SDS011;10908;50.690;4.400;2023-03-15T22:06:17;11.48;;;4.22;;
21492;SDS011;10908;50.690;4.400;2023-03-15T22:08:43;9.40;;;4.45;;
21492;SDS011;10908;50.690;4.400;2023-03-15T22:11:09;9.38;;;4.47;;
21492;SDS011;10908;50.690;4.400;2023-03-15T22:13:34;9.32;;;4.80;;
21492;SDS011;10908;50.690;4.400;2023-03-15T22:16:01;10.10;;;4.55;;
21492;SDS011;10908;50.690;4.400;2023-03-15T22:18:26;10.98;;;5.00;;
21492;SDS011;10908;50.690;4.400;2023-03-15T22:20:53;13.40;;;5.32;;
21492;SDS011;10908;50.690;4.400;2023-03-15T22:23:20;8.85;;;4.60;;
21492;SDS011;10908;50.690;4.400;2023-03-15T22:25:49;12.13;;;5.00;;
21492;SDS011;10908;50.690;4.400;2023-03-15T22:28:17;9.75;;;4.53;;
21492;SDS011;10908;50.690;4.400;2023-03-15T22:30:45;8.80;;;4.78;;
21492;SDS011;10908;50.690;4.400;2023-03-15T22:33:13;9.10;;;4.78;;
21492;SDS011;10908;50.690;4.400;2023-03-15T22:35:39;9.25;;;4.57;;
21492;SDS011;10908;50.690;4.400;2023-03-15T22:38:05;8.35;;;4.65;;
21492;SDS011;10908;50.690;4.400;2023-03-15T22:40:34;10.30;;;4.18;;
21492;SDS011;10908;50.690;4.400;2023-03-15T22:43:01;8.73;;;4.20;;
21492;SDS011;10908;50.690;4.400;2023-03-15T22:45:27;6.40;;;3.80;;
21492;SDS011;10908;50.690;4.400;2023-03-15T22:47:53;9.65;;;4.30;;
21492;SDS011;10908;50.690;4.400;2023-03-15T22:50:19;9.23;;;4.07;;
21492;SDS011;10908;50.690;4.400;2023-03-15T22:52:45;9.30;;;4.25;;
21492;SDS011;10908;50.690;4.400;2023-03-15T22:55:10;9.90;;;3.72;;
21492;SDS011;10908;50.690;4.400;2023-03-15T22:57:36;10.05;;;3.95;;
21492;SDS011;10908;50.690;4.400;2023-03-15T23:00:06;10.02;;;3.58;;
21492;SDS011;10908;50.690;4.400;2023-03-15T23:02:41;7.53;;;3.67;;
21492;SDS011;10908;50.690;4.400;2023-03-15T23:05:07;6.65;;;3.47;;
21492;SDS011;10908;50.690;4.400;2023-03-15T23:07:33;8.88;;;4.05;;
21492;SDS011;10908;50.690;4.400;2023-03-15T23:09:59;9.35;;;3.90;;
21492;SDS011;10908;50.690;4.400;2023-03-15T23:12:25;7.53;;;3.38;;
21492;SDS011;10908;50.690;4.400;2023-03-15T23:14:51;9.60;;;3.95;;
21492;SDS011;10908;50.690;4.400;2023-03-15T23:17:17;9.07;;;3.80;;
21492;SDS011;10908;50.690;4.400;2023-03-15T23:19:43;7.55;;;3.53;;
21492;SDS011;10908;50.690;4.400;2023-03-15T23:22:08;9.85;;;3.63;;
21492;SDS011;10908;50.690;4.400;2023-03-15T23:24:35;9.18;;;3.88;;
21492;SDS011;10908;50.690;4.400;2023-03-15T23:27:01;7.88;;;3.42;;
21492;SDS011;10908;50.690;4.400;2023-03-15T23:29:33;7.72;;;3.40;;
21492;SDS011;10908;50.690;4.400;2023-03-15T23:31:58;7.45;;;3.60;;
21492;SDS011;10908;50.690;4.400;2023-03-15T23:34:25;8.23;;;3.42;;
21492;SDS011;10908;50.690;4.400;2023-03-15T23:36:51;10.05;;;3.72;;
21492;SDS011;10908;50.690;4.400;2023-03-15T23:39:17;8.98;;;3.30;;
21492;SDS011;10908;50.690;4.400;2023-03-15T23:41:43;10.63;;;3.70;;
21492;SDS011;10908;50.690;4.400;2023-03-15T23:44:09;7.65;;;3.47;;
21492;SDS011;10908;50.690;4.400;2023-03-15T23:46:36;14.18;;;3.58;;
21492;SDS011;10908;50.690;4.400;2023-03-15T23:49:02;7.78;;;3.58;;
21492;SDS011;10908;50.690;4.400;2023-03-15T23:51:29;10.98;;;3.58;;
21492;SDS011;10908;50.690;4.400;2023-03-15T23:53:56;8.43;;;3.65;;
21492;SDS011;10908;50.690;4.400;2023-03-15T23:56:22;8.10;;;3.60;;
21492;SDS011;10908;50.690;4.400;2023-03-15T23:58:48;8.20;;;3.63;;
